KACT/ACT METAR and TAF weather

Enter ICAO airport designator
Station Type Date Time Source
KACT METAR 2021/09/23 16:51 UTC NOAA

KACT 231651Z 16005KT 10SM CLR 27/07 A3015 RMK AO2 SLP203 T02670072


Station Type Date Time Source
KACT Decoded METAR 2021/09/23 16:51 UTC NOAA

WACO REGIONAL AIRPORT, TX, United States (KACT) 31-36N 97-13W 151M
Sep 23, 2021 - 12:51 PM EDT / 2021.09.23 1651 UTC
Wind: from the SSE (160 degrees) at 6 MPH (5 KT):0
Visibility: 10 mile(s):0
Sky conditions: clear
Temperature: 80.1 F (26.7 C)
Dew Point: 45.0 F (7.2 C)
Relative Humidity: 28%
Pressure (altimeter): 30.15 in. Hg (1020 hPa)
ob: KACT 231651Z 16005KT 10SM CLR 27/07 A3015 RMK AO2 SLP203 T02670072
cycle: 17

Station Type Date Time Source
KACT TAF 2021/09/23 18:22 UTC NOAA

TAF KACT 231720Z 2318/2418 15005KT P6SM FEW250

Example: see airport list